Time;durP1;ratioP1;P1;durP2;ratioP2;P2;SDS_P1;SDS_P2;PMS_P1;PMS_P2;Temp;Humidity;BMP_temperature;BMP_pressure;BME280_temperature;BME280_humidity;BME280_pressure;Samples;Min_cycle;Max_cycle;Signal;HPM_P1;HPM_P2
2023/03/06 00:02:15;;;;;;;10.32;3.72;;;3.90;99.90;;;;;;5039368;28;25102;-76
2023/03/06 00:04:41;;;;;;;6.32;3.88;;;4.00;99.90;;;;;;5039525;28;25058;-75
2023/03/06 00:07:06;;;;;;;11.50;4.35;;;4.10;99.90;;;;;;5025979;28;25078;-75
2023/03/06 00:09:32;;;;;;;7.63;4.40;;;4.00;99.90;;;;;;5051355;28;25072;-73
2023/03/06 00:11:57;;;;;;;7.30;3.75;;;4.00;99.90;;;;;;5038219;28;25078;-76
2023/03/06 00:14:23;;;;;;;9.13;4.78;;;4.00;99.90;;;;;;5024139;28;25153;-75
2023/03/06 00:16:48;;;;;;;9.70;3.90;;;4.00;99.90;;;;;;5041287;28;25065;-74
2023/03/06 00:19:14;;;;;;;8.07;4.40;;;4.00;99.90;;;;;;5039073;28;25057;-75
2023/03/06 00:21:40;;;;;;;6.82;4.20;;;4.10;99.90;;;;;;5038819;28;25078;-74
2023/03/06 00:24:06;;;;;;;11.40;4.32;;;4.10;99.90;;;;;;5040160;28;25056;-73
2023/03/06 00:26:32;;;;;;;6.60;4.38;;;4.10;99.90;;;;;;5018089;28;25077;-74
2023/03/06 00:28:58;;;;;;;9.45;4.60;;;4.10;99.90;;;;;;5031441;28;25137;-75
2023/03/06 00:31:24;;;;;;;10.68;4.80;;;4.00;99.90;;;;;;5034546;28;25052;-73
2023/03/06 00:33:49;;;;;;;8.82;4.00;;;4.00;99.90;;;;;;5049679;28;25049;-75
2023/03/06 00:36:15;;;;;;;9.82;4.47;;;4.00;99.90;;;;;;5054555;28;25080;-76
2023/03/06 00:38:41;;;;;;;13.00;5.07;;;4.00;99.90;;;;;;5054079;28;25065;-75
2023/03/06 00:41:11;;;;;;;10.18;4.60;;;4.00;99.90;;;;;;5049132;28;25104;-76
2023/03/06 00:43:37;;;;;;;11.07;4.68;;;3.90;99.90;;;;;;5048985;28;25068;-75
2023/03/06 00:46:02;;;;;;;10.20;5.28;;;3.80;99.90;;;;;;5050499;28;25101;-75
2023/03/06 00:48:28;;;;;;;9.98;5.20;;;3.80;99.90;;;;;;5040025;28;25094;-76
2023/03/06 00:50:55;;;;;;;7.60;4.63;;;3.90;99.90;;;;;;5051672;28;25072;-77
2023/03/06 00:53:21;;;;;;;8.13;4.43;;;3.80;99.90;;;;;;5049117;28;25078;-73
2023/03/06 00:55:46;;;;;;;14.02;6.38;;;3.80;99.90;;;;;;5048919;28;25071;-74
2023/03/06 00:58:13;;;;;;;11.02;5.47;;;3.70;99.90;;;;;;5037990;28;25143;-74
2023/03/06 01:00:38;;;;;;;10.77;4.70;;;3.70;99.90;;;;;;5044904;28;25088;-72
2023/03/06 01:03:04;;;;;;;9.13;5.28;;;3.70;99.90;;;;;;5046422;28;25067;-74
2023/03/06 01:05:31;;;;;;;10.75;5.18;;;3.60;99.90;;;;;;5046784;28;25070;-73
2023/03/06 01:07:57;;;;;;;11.15;4.80;;;3.70;99.90;;;;;;5048215;28;25055;-74
2023/03/06 01:10:23;;;;;;;8.25;4.47;;;3.70;99.90;;;;;;5047736;28;25127;-76
2023/03/06 01:12:48;;;;;;;8.98;5.32;;;3.60;99.90;;;;;;5046913;28;25084;-75
2023/03/06 01:15:14;;;;;;;8.93;4.32;;;3.60;99.90;;;;;;5038078;28;25095;-76
2023/03/06 01:17:40;;;;;;;9.43;5.10;;;3.50;99.90;;;;;;5025352;28;25144;-72
2023/03/06 01:20:06;;;;;;;10.27;5.15;;;3.60;99.90;;;;;;5023757;28;25057;-73
2023/03/06 01:22:31;;;;;;;9.38;4.80;;;3.50;99.90;;;;;;5032686;28;25066;-73
2023/03/06 01:24:57;;;;;;;8.48;4.88;;;3.40;99.90;;;;;;5033172;28;25156;-74
2023/03/06 01:27:22;;;;;;;12.80;4.53;;;3.40;99.90;;;;;;5032786;28;25064;-73
2023/03/06 01:29:48;;;;;;;9.60;4.82;;;3.30;99.90;;;;;;5032351;28;25132;-74
2023/03/06 01:32:14;;;;;;;13.25;5.57;;;3.40;99.90;;;;;;5030676;28;25064;-74
2023/03/06 01:34:39;;;;;;;11.75;4.35;;;3.30;99.90;;;;;;5021327;28;25108;-74
2023/03/06 01:37:05;;;;;;;8.00;4.45;;;3.40;99.90;;;;;;5032489;28;25088;-74
2023/03/06 01:39:30;;;;;;;8.02;4.63;;;3.30;99.90;;;;;;5031024;28;25046;-74
2023/03/06 01:41:56;;;;;;;6.80;4.15;;;3.30;99.90;;;;;;5033742;28;25080;-75
2023/03/06 01:44:22;;;;;;;9.68;4.00;;;3.50;99.90;;;;;;5031027;28;25060;-75
2023/03/06 01:46:47;;;;;;;9.25;3.88;;;3.50;99.90;;;;;;5030589;28;25116;-72
2023/03/06 01:49:20;;;;;;;13.35;4.75;;;3.40;99.90;;;;;;5031170;28;25073;-75
2023/03/06 01:51:53;;;;;;;10.30;4.38;;;3.40;99.90;;;;;;5034263;28;25085;-74
2023/03/06 01:54:21;;;;;;;13.85;5.15;;;3.40;99.90;;;;;;5037022;28;25085;-74
2023/03/06 01:56:51;;;;;;;9.07;4.07;;;3.40;99.90;;;;;;5032178;28;25107;-75
2023/03/06 01:59:18;;;;;;;8.10;4.65;;;3.50;99.90;;;;;;5033753;28;25050;-73
2023/03/06 02:01:44;;;;;;;10.27;4.68;;;3.40;99.90;;;;;;5032254;28;25159;-77
2023/03/06 02:04:10;;;;;;;10.02;4.55;;;3.50;99.90;;;;;;5034579;28;25053;-75
2023/03/06 02:06:41;;;;;;;13.65;4.82;;;3.50;99.90;;;;;;5024550;28;25076;-75
2023/03/06 02:09:08;;;;;;;9.98;4.53;;;3.50;99.90;;;;;;5039289;28;25064;-76
2023/03/06 02:11:33;;;;;;;11.13;4.30;;;3.50;99.90;;;;;;5040805;28;25104;-75
2023/03/06 02:13:59;;;;;;;12.27;4.88;;;3.50;99.90;;;;;;5043521;28;25061;-75
2023/03/06 02:16:28;;;;;;;10.30;4.43;;;3.60;99.90;;;;;;5035943;28;25076;-75
2023/03/06 02:18:54;;;;;;;8.35;4.68;;;3.60;99.90;;;;;;5033445;28;25070;-75
2023/03/06 02:21:24;;;;;;;13.43;4.85;;;3.70;99.90;;;;;;5043194;28;25078;-74
2023/03/06 02:24:04;;;;;;;5.68;3.85;;;3.60;99.90;;;;;;5029320;28;25074;-71
2023/03/06 02:26:31;;;;;;;13.02;4.15;;;3.70;99.90;;;;;;5028202;28;25101;-75
2023/03/06 02:28:58;;;;;;;10.65;3.70;;;3.60;99.90;;;;;;5038715;28;25099;-75
2023/03/06 02:31:29;;;;;;;9.60;4.78;;;3.60;99.90;;;;;;5040059;28;25057;-75
2023/03/06 02:34:07;;;;;;;9.60;4.20;;;3.60;99.90;;;;;;5038717;28;25055;-74
2023/03/06 02:36:36;;;;;;;9.43;3.80;;;3.60;99.90;;;;;;5037732;28;25098;-74
2023/03/06 02:39:04;;;;;;;7.63;3.85;;;3.60;99.90;;;;;;5036118;28;25098;-76
2023/03/06 02:41:29;;;;;;;11.02;4.03;;;3.70;99.90;;;;;;5030157;28;25052;-74
2023/03/06 02:43:55;;;;;;;9.90;4.28;;;3.70;99.90;;;;;;5036902;28;25069;-74
2023/03/06 02:46:21;;;;;;;9.48;4.53;;;3.60;99.90;;;;;;5032281;28;25082;-74
2023/03/06 02:48:46;;;;;;;8.02;3.92;;;3.60;99.90;;;;;;5032623;28;25149;-76
2023/03/06 02:51:12;;;;;;;10.38;4.05;;;3.60;99.90;;;;;;5036163;28;25073;-73
2023/03/06 02:53:37;;;;;;;7.57;3.90;;;3.60;99.90;;;;;;5024778;28;25079;-74
2023/03/06 02:56:03;;;;;;;6.55;4.03;;;3.60;99.90;;;;;;5032942;28;25069;-76
2023/03/06 02:58:29;;;;;;;7.82;4.13;;;3.60;99.90;;;;;;5023169;28;25094;-75
2023/03/06 03:00:54;;;;;;;11.18;4.65;;;3.60;99.90;;;;;;5023067;28;25056;-75
2023/03/06 03:03:20;;;;;;;11.73;4.60;;;3.50;99.90;;;;;;5033827;28;25098;-76
2023/03/06 03:05:46;;;;;;;9.93;4.57;;;3.50;99.90;;;;;;5019761;28;25064;-76
2023/03/06 03:08:11;;;;;;;7.10;3.63;;;3.40;99.90;;;;;;5035908;28;25093;-75
2023/03/06 03:10:37;;;;;;;8.60;3.53;;;3.40;99.90;;;;;;5036592;28;25102;-74
2023/03/06 03:13:02;;;;;;;6.10;3.72;;;3.30;99.90;;;;;;5036303;28;25067;-74
2023/03/06 03:15:28;;;;;;;9.60;4.43;;;3.30;99.90;;;;;;5027263;28;25141;-76
2023/03/06 03:17:54;;;;;;;8.90;4.20;;;3.20;99.90;;;;;;5035107;28;25125;-74
2023/03/06 03:20:20;;;;;;;9.98;6.20;;;3.30;99.90;;;;;;5037233;28;25148;-74
2023/03/06 03:22:51;;;;;;;9.23;3.80;;;3.30;99.90;;;;;;5035440;28;25079;-76
2023/03/06 03:25:18;;;;;;;7.95;3.92;;;3.40;99.90;;;;;;5035998;28;25112;-75
2023/03/06 03:27:43;;;;;;;7.95;4.18;;;3.30;99.90;;;;;;5035955;28;25063;-75
2023/03/06 03:30:10;;;;;;;8.13;3.95;;;3.40;99.90;;;;;;5037218;28;25094;-75
2023/03/06 03:32:35;;;;;;;8.48;3.92;;;3.40;99.90;;;;;;5036155;28;25069;-75
2023/03/06 03:35:02;;;;;;;8.00;3.65;;;3.40;99.90;;;;;;5036750;28;25065;-77
2023/03/06 03:37:27;;;;;;;6.70;3.15;;;3.30;99.90;;;;;;5035165;28;25053;-74
2023/03/06 03:39:53;;;;;;;11.32;3.97;;;3.30;99.90;;;;;;5035856;28;25061;-73
2023/03/06 03:42:18;;;;;;;12.15;3.08;;;3.40;99.90;;;;;;5036652;28;25087;-75
2023/03/06 03:44:44;;;;;;;8.23;3.47;;;3.40;99.90;;;;;;5035779;28;25065;-75
2023/03/06 03:47:09;;;;;;;6.30;3.20;;;3.60;99.90;;;;;;5035946;28;25098;-74
2023/03/06 03:49:35;;;;;;;6.60;3.42;;;3.50;99.90;;;;;;5021025;28;25056;-73
2023/03/06 03:52:01;;;;;;;11.55;3.55;;;3.40;99.90;;;;;;5033152;28;25069;-74
2023/03/06 03:54:26;;;;;;;8.00;3.30;;;3.50;99.90;;;;;;5034578;28;25124;-74
2023/03/06 03:56:52;;;;;;;7.60;3.28;;;3.50;99.90;;;;;;5026932;28;25049;-78
2023/03/06 03:59:18;;;;;;;5.85;2.72;;;3.50;99.90;;;;;;5042812;28;25081;-73
2023/03/06 04:01:44;;;;;;;8.38;3.25;;;3.50;99.90;;;;;;5040427;28;25074;-75
2023/03/06 04:04:10;;;;;;;5.53;3.40;;;3.50;99.90;;;;;;5027775;28;25096;-74
2023/03/06 04:06:36;;;;;;;3.97;2.55;;;3.60;99.90;;;;;;5039913;28;25078;-75
2023/03/06 04:09:03;;;;;;;5.57;3.13;;;3.60;99.90;;;;;;5027020;28;25067;-75
2023/03/06 04:11:30;;;;;;;7.38;3.75;;;3.70;99.90;;;;;;5039878;28;25084;-73
2023/03/06 04:13:55;;;;;;;6.18;3.03;;;3.70;99.90;;;;;;5029837;28;25056;-75
2023/03/06 04:16:21;;;;;;;11.10;3.55;;;3.80;99.90;;;;;;5024068;28;25086;-74
2023/03/06 04:18:46;;;;;;;8.15;3.58;;;3.90;99.90;;;;;;5037482;28;25062;-74
2023/03/06 04:21:13;;;;;;;6.45;3.05;;;3.90;99.90;;;;;;5038720;28;25085;-73
2023/03/06 04:23:38;;;;;;;7.13;2.63;;;3.90;99.90;;;;;;5027672;28;25072;-75
2023/03/06 04:26:04;;;;;;;5.82;3.20;;;3.90;99.90;;;;;;5037770;28;25052;-74
2023/03/06 04:28:30;;;;;;;8.77;2.78;;;3.80;99.90;;;;;;5024666;28;25076;-76
2023/03/06 04:30:56;;;;;;;7.75;3.13;;;3.90;99.90;;;;;;5039594;28;25073;-76
2023/03/06 04:33:22;;;;;;;6.35;3.03;;;3.90;99.90;;;;;;5039811;28;25054;-73
2023/03/06 04:35:47;;;;;;;9.25;4.32;;;4.00;99.90;;;;;;5050290;28;25068;-77
2023/03/06 04:38:13;;;;;;;6.63;2.72;;;4.10;99.90;;;;;;5046843;28;25062;-75
2023/03/06 04:40:39;;;;;;;7.35;2.72;;;4.10;99.90;;;;;;5041278;28;25107;-75
2023/03/06 04:43:04;;;;;;;6.40;2.85;;;4.10;99.90;;;;;;5047675;28;25071;-77
2023/03/06 04:45:31;;;;;;;18.00;3.35;;;4.10;99.90;;;;;;5040113;28;25069;-76
2023/03/06 04:47:57;;;;;;;4.97;3.28;;;4.10;99.90;;;;;;5025250;28;25064;-76
2023/03/06 04:50:24;;;;;;;10.27;2.97;;;4.10;99.90;;;;;;5033376;28;25096;-76
2023/03/06 04:52:51;;;;;;;10.90;3.17;;;4.00;99.90;;;;;;5041950;28;25068;-77
2023/03/06 04:55:17;;;;;;;7.57;3.30;;;4.00;99.90;;;;;;5047899;28;25058;-77
2023/03/06 04:57:44;;;;;;;5.40;3.08;;;4.00;99.90;;;;;;5024597;28;25076;-76
2023/03/06 05:00:17;;;;;;;6.72;3.25;;;4.10;99.90;;;;;;5036122;28;25145;-77
2023/03/06 05:02:44;;;;;;;6.45;3.50;;;4.10;99.90;;;;;;5021360;28;25058;-76
2023/03/06 05:05:10;;;;;;;7.43;3.95;;;4.10;99.90;;;;;;5022370;28;25061;-76
2023/03/06 05:07:36;;;;;;;7.32;3.80;;;4.10;99.90;;;;;;5032737;28;25068;-78
2023/03/06 05:10:02;;;;;;;11.98;3.92;;;4.10;99.90;;;;;;5033706;28;25135;-77
2023/03/06 05:12:28;;;;;;;6.38;3.15;;;4.10;99.90;;;;;;5031399;28;25162;-77
2023/03/06 05:14:53;;;;;;;7.75;4.05;;;4.20;99.90;;;;;;5023670;28;25050;-76
2023/03/06 05:17:19;;;;;;;6.28;3.25;;;4.20;99.90;;;;;;5021943;28;25070;-75
2023/03/06 05:19:45;;;;;;;12.40;4.10;;;4.20;99.90;;;;;;5034360;28;25091;-76
2023/03/06 05:22:10;;;;;;;6.20;3.53;;;4.30;99.90;;;;;;5021963;28;25122;-77
2023/03/06 05:24:36;;;;;;;6.28;3.50;;;4.20;99.90;;;;;;5033153;28;25109;-74
2023/03/06 05:27:03;;;;;;;7.03;3.75;;;4.20;99.90;;;;;;5022470;28;25146;-77
2023/03/06 05:29:28;;;;;;;8.10;3.38;;;4.30;99.90;;;;;;5036433;28;25172;-76
2023/03/06 05:31:54;;;;;;;8.95;4.13;;;4.20;99.90;;;;;;5032606;28;25106;-76
2023/03/06 05:34:21;;;;;;;8.43;4.00;;;4.20;99.90;;;;;;5023063;28;25099;-76
2023/03/06 05:36:46;;;;;;;14.25;4.65;;;4.10;99.90;;;;;;5019336;28;25082;-75
2023/03/06 05:39:12;;;;;;;9.00;4.72;;;4.00;99.90;;;;;;5032488;28;25158;-76
2023/03/06 05:41:38;;;;;;;14.75;4.88;;;4.00;99.90;;;;;;5030693;28;25058;-75
2023/03/06 05:44:03;;;;;;;10.70;4.30;;;4.00;99.90;;;;;;5019982;28;25071;-74
2023/03/06 05:46:29;;;;;;;9.98;4.38;;;4.20;99.90;;;;;;5031970;28;25078;-78
2023/03/06 05:48:56;;;;;;;12.95;4.85;;;4.30;99.90;;;;;;5025570;28;25128;-76
2023/03/06 05:51:23;;;;;;;13.55;6.97;;;4.40;99.90;;;;;;5027690;28;25108;-76
2023/03/06 05:53:48;;;;;;;13.48;5.20;;;4.30;99.90;;;;;;5021484;28;25069;-75
2023/03/06 05:56:14;;;;;;;12.65;5.07;;;4.30;99.90;;;;;;5023556;28;25078;-76
2023/03/06 05:58:40;;;;;;;10.90;6.03;;;4.40;99.90;;;;;;5023178;28;25061;-76
2023/03/06 06:01:10;;;;;;;11.75;4.95;;;4.50;99.90;;;;;;5023038;28;25061;-76
2023/03/06 06:03:37;;;;;;;13.73;4.93;;;4.50;99.90;;;;;;5013306;28;25066;-77
2023/03/06 06:06:04;;;;;;;13.77;6.03;;;4.50;99.90;;;;;;5025041;28;25141;-77
2023/03/06 06:08:29;;;;;;;10.80;5.38;;;4.60;99.90;;;;;;5025249;28;25057;-78
2023/03/06 06:10:55;;;;;;;12.63;5.63;;;4.70;99.90;;;;;;5022442;28;25070;-76
2023/03/06 06:13:21;;;;;;;11.30;5.95;;;4.60;99.90;;;;;;5013712;28;25062;-77
2023/03/06 06:15:46;;;;;;;13.13;5.95;;;4.70;99.90;;;;;;5014720;28;25087;-77
2023/03/06 06:18:12;;;;;;;11.50;5.88;;;4.70;99.90;;;;;;5015042;28;25116;-77
2023/03/06 06:20:38;;;;;;;9.65;5.45;;;4.60;99.90;;;;;;5014179;28;25058;-76
2023/03/06 06:23:03;;;;;;;10.45;5.60;;;4.60;99.90;;;;;;5011864;28;25057;-76
2023/03/06 06:25:29;;;;;;;9.90;5.57;;;4.50;99.90;;;;;;4999422;28;25116;-76
2023/03/06 06:27:55;;;;;;;14.30;5.75;;;4.40;99.90;;;;;;5029046;28;25049;-75
2023/03/06 06:30:21;;;;;;;18.63;6.45;;;4.40;99.90;;;;;;5033950;28;25113;-73
2023/03/06 06:32:47;;;;;;;11.95;5.90;;;4.40;99.90;;;;;;5031397;28;25095;-77
2023/03/06 06:35:12;;;;;;;12.13;5.68;;;4.50;99.90;;;;;;5028980;28;25109;-77
2023/03/06 06:37:38;;;;;;;14.57;5.75;;;4.40;99.90;;;;;;5017168;28;25168;-77
2023/03/06 06:40:04;;;;;;;12.63;6.28;;;4.40;99.90;;;;;;5027583;28;25119;-76
2023/03/06 06:42:30;;;;;;;13.38;6.05;;;4.50;99.90;;;;;;5020115;28;25059;-77
2023/03/06 06:44:56;;;;;;;14.82;5.97;;;4.50;99.90;;;;;;5033793;28;25183;-76
2023/03/06 06:47:21;;;;;;;18.50;7.28;;;4.40;99.90;;;;;;5020450;28;25084;-75
2023/03/06 06:49:55;;;;;;;14.57;6.32;;;4.60;99.90;;;;;;5005389;28;25100;-74
2023/03/06 06:52:21;;;;;;;14.32;5.95;;;4.60;99.90;;;;;;5020454;28;25130;-75
2023/03/06 06:54:47;;;;;;;13.88;6.50;;;4.60;99.90;;;;;;5032029;28;25136;-75
2023/03/06 06:57:13;;;;;;;15.98;6.55;;;4.60;99.90;;;;;;5031763;28;25070;-74
2023/03/06 06:59:39;;;;;;;12.25;5.75;;;4.70;99.90;;;;;;5044362;28;25089;-76
2023/03/06 07:02:06;;;;;;;12.52;6.60;;;4.60;99.90;;;;;;5032626;28;25098;-75
2023/03/06 07:04:31;;;;;;;12.30;6.72;;;4.70;99.90;;;;;;5032415;28;25084;-75
2023/03/06 07:06:58;;;;;;;11.63;6.00;;;4.90;99.90;;;;;;5020026;28;25150;-77
2023/03/06 07:09:24;;;;;;;14.10;7.30;;;4.80;99.90;;;;;;5033701;28;25060;-75
2023/03/06 07:11:49;;;;;;;11.93;6.70;;;4.80;99.90;;;;;;5032380;28;25146;-75
2023/03/06 07:14:16;;;;;;;14.50;6.43;;;4.80;99.90;;;;;;5031771;28;25066;-75
2023/03/06 07:16:42;;;;;;;12.98;6.35;;;4.80;99.90;;;;;;5033107;28;25063;-77
2023/03/06 07:19:07;;;;;;;14.32;6.95;;;5.00;99.90;;;;;;5030737;28;25116;-74
2023/03/06 07:21:34;;;;;;;17.23;7.32;;;5.00;99.90;;;;;;5032434;28;25130;-75
2023/03/06 07:23:59;;;;;;;14.80;7.28;;;5.10;99.90;;;;;;5030991;28;25087;-75
2023/03/06 07:26:26;;;;;;;11.60;6.25;;;5.30;99.90;;;;;;5031034;28;25101;-75
2023/03/06 07:28:53;;;;;;;15.40;7.00;;;5.40;99.90;;;;;;5031273;28;25080;-75
2023/03/06 07:31:21;;;;;;;16.40;7.00;;;5.30;99.90;;;;;;5031411;28;25054;-76
2023/03/06 07:33:51;;;;;;;16.42;7.90;;;5.40;99.90;;;;;;5032050;28;25048;-76
2023/03/06 07:36:17;;;;;;;12.02;6.65;;;5.50;99.90;;;;;;5029709;28;25103;-77
2023/03/06 07:38:42;;;;;;;17.35;7.47;;;5.50;99.90;;;;;;5026752;28;25155;-75
2023/03/06 07:41:12;;;;;;;14.10;6.88;;;5.50;99.90;;;;;;5030476;28;25068;-75
2023/03/06 07:43:39;;;;;;;19.75;8.20;;;5.40;99.90;;;;;;5031152;28;25199;-78
2023/03/06 07:46:05;;;;;;;18.60;7.68;;;5.50;99.90;;;;;;5017909;28;25082;-75
2023/03/06 07:48:31;;;;;;;13.77;7.75;;;5.60;99.90;;;;;;5031819;28;25158;-75
2023/03/06 07:50:59;;;;;;;16.40;7.55;;;5.60;99.90;;;;;;5038021;28;25072;-74
2023/03/06 07:53:24;;;;;;;19.15;8.20;;;5.80;99.90;;;;;;5036304;28;25139;-74
2023/03/06 07:55:50;;;;;;;14.70;7.68;;;5.80;99.90;;;;;;5030606;28;25120;-75
2023/03/06 07:58:16;;;;;;;11.15;6.60;;;5.90;99.90;;;;;;5031617;28;25052;-76
2023/03/06 08:00:42;;;;;;;15.88;7.82;;;5.80;99.90;;;;;;5036585;28;25076;-76
2023/03/06 08:03:10;;;;;;;13.15;7.40;;;5.80;99.90;;;;;;5032454;28;25100;-76
2023/03/06 08:05:35;;;;;;;18.75;7.25;;;6.00;99.90;;;;;;5032410;28;25075;-76
2023/03/06 08:08:01;;;;;;;14.18;7.15;;;6.10;99.90;;;;;;5033405;28;25105;-76
2023/03/06 08:10:27;;;;;;;14.40;6.80;;;6.20;99.90;;;;;;5036408;28;25063;-76
2023/03/06 08:12:52;;;;;;;17.85;8.38;;;6.20;99.90;;;;;;5032203;28;25084;-78
2023/03/06 08:15:18;;;;;;;16.58;7.53;;;6.10;99.90;;;;;;5032042;28;25062;-76
2023/03/06 08:17:43;;;;;;;14.00;8.40;;;5.90;99.90;;;;;;5028959;28;25079;-76
2023/03/06 08:20:10;;;;;;;16.92;8.02;;;5.80;99.90;;;;;;5031555;28;25062;-76
2023/03/06 08:22:36;;;;;;;14.68;8.48;;;6.00;99.90;;;;;;5028243;28;25078;-76
2023/03/06 08:25:02;;;;;;;13.52;7.90;;;6.00;99.90;;;;;;5029530;28;25109;-75
2023/03/06 08:27:30;;;;;;;14.77;8.23;;;6.00;99.90;;;;;;5032293;28;25057;-76
2023/03/06 08:29:56;;;;;;;18.17;8.85;;;6.00;99.90;;;;;;5030709;28;25069;-76
2023/03/06 08:32:21;;;;;;;17.50;8.32;;;6.00;99.90;;;;;;5029937;28;25134;-76
2023/03/06 08:34:47;;;;;;;19.35;8.32;;;6.10;99.90;;;;;;5029040;28;25085;-75
2023/03/06 08:37:12;;;;;;;15.82;8.32;;;6.10;99.90;;;;;;5031948;28;25106;-77
2023/03/06 08:39:38;;;;;;;14.13;7.40;;;6.20;99.90;;;;;;5032416;28;25163;-77
2023/03/06 08:42:03;;;;;;;16.13;8.05;;;6.20;99.90;;;;;;5031609;28;25108;-75
2023/03/06 08:44:29;;;;;;;11.05;6.50;;;6.20;99.90;;;;;;5032069;28;25079;-74
2023/03/06 08:46:54;;;;;;;13.27;6.80;;;6.30;99.90;;;;;;5031999;28;25097;-77
2023/03/06 08:49:20;;;;;;;11.07;6.18;;;6.20;99.90;;;;;;5032343;28;25063;-77
2023/03/06 08:51:46;;;;;;;15.30;6.75;;;5.90;99.90;;;;;;5030078;28;25071;-77
2023/03/06 08:54:12;;;;;;;12.63;6.22;;;6.00;99.90;;;;;;5032472;28;25072;-75
2023/03/06 08:56:38;;;;;;;16.10;7.25;;;6.20;99.90;;;;;;5032463;28;25099;-77
2023/03/06 08:59:05;;;;;;;10.38;4.85;;;6.00;99.90;;;;;;5037636;28;25100;-76
2023/03/06 09:01:33;;;;;;;13.10;5.53;;;6.10;99.90;;;;;;5039147;28;25074;-77
2023/03/06 09:04:03;;;;;;;13.68;6.47;;;6.10;99.90;;;;;;5034520;28;25072;-75
2023/03/06 09:06:31;;;;;;;10.48;5.95;;;6.10;99.90;;;;;;5031166;28;25071;-76
2023/03/06 09:08:56;;;;;;;8.48;5.53;;;6.20;99.90;;;;;;5030005;28;25168;-75
2023/03/06 09:11:24;;;;;;;9.85;6.03;;;6.10;99.90;;;;;;5033125;28;25166;-76
2023/03/06 09:13:50;;;;;;;11.93;5.43;;;6.10;99.90;;;;;;5039486;28;25056;-75
2023/03/06 09:16:15;;;;;;;7.72;4.60;;;6.00;99.90;;;;;;5035681;28;25145;-76
2023/03/06 09:18:41;;;;;;;9.13;4.82;;;6.00;99.90;;;;;;5030788;28;25082;-76
2023/03/06 09:21:08;;;;;;;10.10;4.25;;;6.00;99.90;;;;;;5031577;28;25056;-76
2023/03/06 09:23:35;;;;;;;6.93;4.75;;;5.90;99.90;;;;;;5017597;28;25108;-77
2023/03/06 09:26:02;;;;;;;13.93;5.40;;;6.10;99.90;;;;;;5021133;28;25088;-77
2023/03/06 09:28:28;;;;;;;9.07;4.93;;;6.00;99.90;;;;;;5030532;28;25078;-77
2023/03/06 09:30:53;;;;;;;7.03;4.63;;;5.90;99.90;;;;;;5031804;28;25119;-75
2023/03/06 09:33:20;;;;;;;9.35;4.88;;;5.90;99.90;;;;;;5031865;28;25090;-75
2023/03/06 09:35:54;;;;;;;9.75;4.10;;;5.90;99.90;;;;;;5031530;28;25082;-76
2023/03/06 09:38:22;;;;;;;7.82;4.10;;;6.00;99.90;;;;;;5033769;28;25056;-77
2023/03/06 09:40:56;;;;;;;7.53;4.28;;;5.90;99.90;;;;;;5036670;28;25072;-76
2023/03/06 09:43:37;;;;;;;7.70;3.95;;;5.70;99.90;;;;;;5037917;28;25077;-76
2023/03/06 09:46:23;;;;;;;11.45;5.03;;;5.50;99.90;;;;;;5036085;28;25152;-76
2023/03/06 09:49:09;;;;;;;7.82;4.97;;;5.50;99.90;;;;;;5032237;28;25065;-75
2023/03/06 09:51:49;;;;;;;8.13;4.68;;;5.60;99.90;;;;;;5018023;28;25079;-76
2023/03/06 09:54:17;;;;;;;10.40;4.85;;;5.50;99.90;;;;;;5031067;28;25077;-77
2023/03/06 09:56:47;;;;;;;7.00;5.18;;;5.60;99.90;;;;;;5029574;28;25100;-76
2023/03/06 09:59:20;;;;;;;8.35;5.32;;;5.70;99.90;;;;;;5030550;28;25101;-75
2023/03/06 10:02:01;;;;;;;11.80;5.35;;;5.80;99.90;;;;;;5029872;28;25089;-76
2023/03/06 10:04:35;;;;;;;9.93;6.57;;;5.50;99.90;;;;;;5030101;28;25071;-76
2023/03/06 10:07:09;;;;;;;9.80;5.53;;;5.60;99.90;;;;;;5018157;28;25061;-77
2023/03/06 10:09:56;;;;;;;7.90;5.07;;;5.70;99.90;;;;;;5031194;28;25154;-76
2023/03/06 10:12:25;;;;;;;11.77;4.85;;;5.70;99.90;;;;;;5028451;28;25099;-77
2023/03/06 10:15:05;;;;;;;7.53;5.00;;;5.90;99.90;;;;;;5031084;28;25073;-77
2023/03/06 10:17:38;;;;;;;8.63;5.38;;;6.00;99.90;;;;;;5032879;28;25084;-77
2023/03/06 10:20:18;;;;;;;;;;;5.90;99.90;;;;;;5036670;28;25052;-78
2023/03/06 10:23:11;;;;;;;9.35;5.82;;;5.60;99.90;;;;;;5033739;28;25060;-74
2023/03/06 10:25:55;;;;;;;;;;;5.70;99.90;;;;;;5036685;28;25059;-77
2023/03/06 10:28:45;;;;;;;9.48;5.55;;;5.50;99.90;;;;;;5036213;28;25193;-77
2023/03/06 10:31:18;;;;;;;8.90;5.00;;;5.50;99.90;;;;;;5023779;28;25069;-76
2023/03/06 10:33:57;;;;;;;9.30;5.63;;;5.30;99.90;;;;;;5035458;28;25094;-76
2023/03/06 10:36:28;;;;;;;10.93;6.18;;;5.30;99.90;;;;;;5034246;28;25137;-78
2023/03/06 10:38:56;;;;;;;8.80;5.95;;;5.40;99.90;;;;;;5030324;28;25138;-75
2023/03/06 10:41:37;;;;;;;14.13;7.13;;;5.40;99.90;;;;;;5030179;28;25050;-78
2023/03/06 10:44:02;;;;;;;10.40;6.18;;;5.50;99.90;;;;;;5030779;28;25084;-77
2023/03/06 10:46:42;;;;;;;13.60;6.07;;;5.70;99.90;;;;;;5031572;28;25141;-77
2023/03/06 10:49:36;;;;;;;11.77;6.97;;;5.90;99.90;;;;;;5025431;28;25064;-75
2023/03/06 10:52:05;;;;;;;8.95;5.00;;;6.20;99.90;;;;;;5037025;28;25092;-76
2023/03/06 10:54:36;;;;;;;7.53;4.35;;;6.30;99.90;;;;;;5030227;28;25051;-78
2023/03/06 10:57:27;;;;;;;9.27;5.07;;;6.40;99.90;;;;;;5029924;28;25171;-76
2023/03/06 11:00:03;;;;;;;7.80;4.43;;;6.40;99.90;;;;;;5034597;28;25109;-77
2023/03/06 11:02:39;;;;;;;8.52;4.60;;;6.50;99.90;;;;;;5041457;28;25105;-77
2023/03/06 11:05:16;;;;;;;10.40;5.30;;;6.60;99.90;;;;;;5040464;28;25094;-77
2023/03/06 11:07:54;;;;;;;9.75;5.43;;;6.40;99.90;;;;;;5035287;28;25067;-77
2023/03/06 11:10:22;;;;;;;14.52;5.50;;;6.60;99.90;;;;;;5036187;28;25067;-75
2023/03/06 11:13:03;;;;;;;8.48;5.05;;;6.90;99.90;;;;;;5043554;28;25119;-77
2023/03/06 11:15:29;;;;;;;9.85;5.03;;;7.10;99.90;;;;;;5033357;28;25082;-77
2023/03/06 11:18:03;;;;;;;9.23;5.13;;;7.10;99.90;;;;;;5031914;28;25069;-75
2023/03/06 11:20:47;;;;;;;7.93;4.75;;;7.10;99.90;;;;;;5032309;28;25131;-76
2023/03/06 11:23:20;;;;;;;15.00;5.40;;;7.10;99.90;;;;;;5030700;28;25079;-75
2023/03/06 11:25:55;;;;;;;8.15;4.95;;;7.20;99.90;;;;;;5030384;28;25062;-77
2023/03/06 11:28:44;;;;;;;11.82;5.20;;;7.40;99.90;;;;;;5038032;28;25060;-75
2023/03/06 11:31:17;;;;;;;9.70;5.10;;;7.30;99.90;;;;;;5042827;28;25059;-76
2023/03/06 11:34:01;;;;;;;9.52;5.03;;;7.30;99.90;;;;;;5035271;28;25095;-77
2023/03/06 11:37:18;;;;;;;11.80;5.43;;;7.20;99.90;;;;;;5024294;28;25066;-74
2023/03/06 11:40:11;;;;;;;10.52;4.80;;;7.00;99.90;;;;;;5020636;28;25100;-76
2023/03/06 11:43:07;;;;;;;10.23;4.90;;;7.20;99.90;;;;;;5033391;28;25134;-75
2023/03/06 11:45:43;;;;;;;11.68;4.80;;;7.40;99.90;;;;;;5021480;28;25154;-76
2023/03/06 11:48:16;;;;;;;8.80;4.47;;;7.60;99.90;;;;;;5033099;28;25087;-74
2023/03/06 11:50:48;;;;;;;8.05;4.32;;;7.70;99.90;;;;;;5032000;28;25047;-76
2023/03/06 11:53:16;;;;;;;;;;;7.70;99.90;;;;;;5031488;28;25053;-74
2023/03/06 11:56:09;;;;;;;13.20;5.28;;;7.70;99.90;;;;;;5034034;28;25140;-75
2023/03/06 11:59:26;;;;;;;7.97;4.38;;;7.50;99.90;;;;;;5029386;28;25069;-75
2023/03/06 12:02:30;;;;;;;10.73;5.03;;;7.50;99.90;;;;;;5005316;28;25066;-75
2023/03/06 12:05:11;;;;;;;11.38;4.75;;;7.60;99.90;;;;;;5024001;28;25133;-74
2023/03/06 12:07:53;;;;;;;9.13;4.53;;;7.50;99.90;;;;;;5024696;28;25091;-74
2023/03/06 12:10:29;;;;;;;9.13;4.65;;;7.70;99.90;;;;;;5026138;28;25117;-74
2023/03/06 12:13:30;;;;;;;6.43;3.58;;;7.80;99.90;;;;;;5026153;28;25075;-75
2023/03/06 12:16:23;;;;;;;7.78;4.35;;;8.00;99.90;;;;;;5026065;28;25079;-74
2023/03/06 12:19:21;;;;;;;9.93;4.05;;;8.00;99.90;;;;;;5025662;28;25050;-74
2023/03/06 12:21:53;;;;;;;7.35;3.40;;;8.20;99.90;;;;;;5025936;28;25069;-74
2023/03/06 12:25:04;;;;;;;8.55;3.15;;;7.90;99.90;;;;;;5026219;28;25087;-72
2023/03/06 12:28:09;;;;;;;13.40;3.67;;;7.70;99.90;;;;;;5006697;28;25063;-76
2023/03/06 12:31:14;;;;;;;8.13;3.97;;;7.50;99.90;;;;;;5025843;28;25059;-75
2023/03/06 12:33:49;;;;;;;16.08;5.43;;;7.50;99.90;;;;;;5026432;28;25064;-75
2023/03/06 12:36:30;;;;;;;6.10;4.43;;;7.70;99.90;;;;;;5034926;28;25151;-75
2023/03/06 12:39:01;;;;;;;7.38;4.57;;;7.80;99.90;;;;;;5036852;28;25098;-74
2023/03/06 12:41:51;;;;;;;9.30;4.72;;;7.70;99.90;;;;;;5033695;28;25080;-75
2023/03/06 12:44:45;;;;;;;11.38;5.28;;;8.00;99.90;;;;;;5014695;28;25055;-74
2023/03/06 12:47:16;;;;;;;11.65;6.05;;;8.30;99.90;;;;;;5026295;28;25062;-74
2023/03/06 12:49:44;;;;;;;10.50;5.47;;;8.30;99.90;;;;;;5026071;28;25063;-76
2023/03/06 12:52:25;;;;;;;12.93;5.35;;;8.30;99.90;;;;;;5015928;28;25119;-74
2023/03/06 12:54:52;;;;;;;12.45;5.28;;;8.40;99.90;;;;;;5025440;28;25071;-74
2023/03/06 12:57:21;;;;;;;10.70;5.18;;;8.20;99.90;;;;;;5026359;28;25136;-77
2023/03/06 12:59:48;;;;;;;7.30;4.25;;;8.30;99.90;;;;;;5026993;28;25140;-74
2023/03/06 13:02:32;;;;;;;10.73;4.40;;;8.10;99.90;;;;;;5026112;28;25100;-75
2023/03/06 13:05:12;;;;;;;10.60;4.70;;;8.20;99.90;;;;;;5029466;28;25060;-74
2023/03/06 13:08:05;;;;;;;9.52;5.85;;;8.30;99.90;;;;;;5026689;28;25078;-73